sensor_id;sensor_type;location;lat;lon;timestamp;temperature;humidity
11142;DHT22;5625;50.122;19.864;2022-09-14T00:01:29;16.20;85.30
11142;DHT22;5625;50.122;19.864;2022-09-14T00:03:58;16.20;86.30
11142;DHT22;5625;50.122;19.864;2022-09-14T00:06:28;16.10;80.50
11142;DHT22;5625;50.122;19.864;2022-09-14T00:08:59;16.10;78.30
11142;DHT22;5625;50.122;19.864;2022-09-14T00:11:29;16.10;80.60
11142;DHT22;5625;50.122;19.864;2022-09-14T00:13:59;16.10;79.30
11142;DHT22;5625;50.122;19.864;2022-09-14T00:16:29;16.10;80.80
11142;DHT22;5625;50.122;19.864;2022-09-14T00:18:59;16.00;79.20
11142;DHT22;5625;50.122;19.864;2022-09-14T00:21:31;16.00;79.00
11142;DHT22;5625;50.122;19.864;2022-09-14T00:24:01;16.00;80.50
11142;DHT22;5625;50.122;19.864;2022-09-14T00:26:29;16.00;81.00
11142;DHT22;5625;50.122;19.864;2022-09-14T00:28:58;15.90;79.20
11142;DHT22;5625;50.122;19.864;2022-09-14T00:31:31;15.90;81.20
11142;DHT22;5625;50.122;19.864;2022-09-14T00:34:00;15.90;81.00
11142;DHT22;5625;50.122;19.864;2022-09-14T00:36:29;15.90;82.20
11142;DHT22;5625;50.122;19.864;2022-09-14T00:38:58;15.90;81.00
11142;DHT22;5625;50.122;19.864;2022-09-14T00:41:30;15.90;81.30
11142;DHT22;5625;50.122;19.864;2022-09-14T00:44:01;15.80;80.90
11142;DHT22;5625;50.122;19.864;2022-09-14T00:46:32;15.80;81.30
11142;DHT22;5625;50.122;19.864;2022-09-14T00:49:04;15.80;81.20
11142;DHT22;5625;50.122;19.864;2022-09-14T00:51:36;15.80;83.40
11142;DHT22;5625;50.122;19.864;2022-09-14T00:54:06;15.80;83.90
11142;DHT22;5625;50.122;19.864;2022-09-14T00:56:36;15.70;83.80
11142;DHT22;5625;50.122;19.864;2022-09-14T00:59:08;15.70;83.80
11142;DHT22;5625;50.122;19.864;2022-09-14T01:01:37;15.70;84.80
11142;DHT22;5625;50.122;19.864;2022-09-14T01:04:05;15.70;85.90
11142;DHT22;5625;50.122;19.864;2022-09-14T01:06:37;15.70;85.20
11142;DHT22;5625;50.122;19.864;2022-09-14T01:09:19;15.70;84.90
11142;DHT22;5625;50.122;19.864;2022-09-14T01:12:07;15.70;86.80
11142;DHT22;5625;50.122;19.864;2022-09-14T01:14:43;15.60;87.20
11142;DHT22;5625;50.122;19.864;2022-09-14T01:17:18;15.60;86.40
11142;DHT22;5625;50.122;19.864;2022-09-14T01:20:11;15.60;87.20
11142;DHT22;5625;50.122;19.864;2022-09-14T01:22:47;15.60;87.80
11142;DHT22;5625;50.122;19.864;2022-09-14T01:25:33;15.60;88.60
11142;DHT22;5625;50.122;19.864;2022-09-14T01:28:09;15.60;90.10
11142;DHT22;5625;50.122;19.864;2022-09-14T01:30:41;15.60;90.70
11142;DHT22;5625;50.122;19.864;2022-09-14T01:33:13;15.60;90.40
11142;DHT22;5625;50.122;19.864;2022-09-14T01:35:46;15.60;90.20
11142;DHT22;5625;50.122;19.864;2022-09-14T01:38:19;15.60;90.90
11142;DHT22;5625;50.122;19.864;2022-09-14T01:40:49;15.50;90.70
11142;DHT22;5625;50.122;19.864;2022-09-14T01:43:23;15.50;90.50
11142;DHT22;5625;50.122;19.864;2022-09-14T01:45:55;15.50;90.90
11142;DHT22;5625;50.122;19.864;2022-09-14T01:48:29;15.50;90.40
11142;DHT22;5625;50.122;19.864;2022-09-14T01:50:59;15.50;90.80
11142;DHT22;5625;50.122;19.864;2022-09-14T01:53:31;15.50;90.30
11142;DHT22;5625;50.122;19.864;2022-09-14T01:56:07;15.50;91.40
11142;DHT22;5625;50.122;19.864;2022-09-14T01:58:45;15.40;90.40
11142;DHT22;5625;50.122;19.864;2022-09-14T02:01:17;15.40;90.40
11142;DHT22;5625;50.122;19.864;2022-09-14T02:03:50;15.40;91.50
11142;DHT22;5625;50.122;19.864;2022-09-14T02:06:23;15.40;91.40
11142;DHT22;5625;50.122;19.864;2022-09-14T02:08:53;15.40;91.20
11142;DHT22;5625;50.122;19.864;2022-09-14T02:11:21;15.30;91.60
11142;DHT22;5625;50.122;19.864;2022-09-14T02:13:50;15.40;91.60
11142;DHT22;5625;50.122;19.864;2022-09-14T02:16:19;15.30;92.00
11142;DHT22;5625;50.122;19.864;2022-09-14T02:18:48;15.30;91.60
11142;DHT22;5625;50.122;19.864;2022-09-14T02:21:19;15.30;91.30
11142;DHT22;5625;50.122;19.864;2022-09-14T02:23:48;15.30;92.40
11142;DHT22;5625;50.122;19.864;2022-09-14T02:26:18;15.30;92.30
11142;DHT22;5625;50.122;19.864;2022-09-14T02:28:46;15.30;92.80
11142;DHT22;5625;50.122;19.864;2022-09-14T02:31:24;15.30;93.70
11142;DHT22;5625;50.122;19.864;2022-09-14T02:34:02;15.20;93.00
11142;DHT22;5625;50.122;19.864;2022-09-14T02:36:40;15.20;93.80
11142;DHT22;5625;50.122;19.864;2022-09-14T02:39:18;15.20;94.10
11142;DHT22;5625;50.122;19.864;2022-09-14T02:41:53;15.20;93.40
11142;DHT22;5625;50.122;19.864;2022-09-14T02:44:32;15.20;93.90
11142;DHT22;5625;50.122;19.864;2022-09-14T02:47:08;15.10;93.90
11142;DHT22;5625;50.122;19.864;2022-09-14T02:49:42;15.10;94.00
11142;DHT22;5625;50.122;19.864;2022-09-14T02:52:15;15.10;93.80
11142;DHT22;5625;50.122;19.864;2022-09-14T02:54:51;15.10;94.20
11142;DHT22;5625;50.122;19.864;2022-09-14T02:57:20;15.10;93.70
11142;DHT22;5625;50.122;19.864;2022-09-14T02:59:48;15.10;93.50
11142;DHT22;5625;50.122;19.864;2022-09-14T03:02:17;15.10;94.60
11142;DHT22;5625;50.122;19.864;2022-09-14T03:04:45;15.00;94.60
11142;DHT22;5625;50.122;19.864;2022-09-14T03:07:13;15.00;94.40
11142;DHT22;5625;50.122;19.864;2022-09-14T03:09:41;15.00;94.20
11142;DHT22;5625;50.122;19.864;2022-09-14T03:12:09;15.00;94.30
11142;DHT22;5625;50.122;19.864;2022-09-14T03:14:37;15.00;94.00
11142;DHT22;5625;50.122;19.864;2022-09-14T03:17:05;15.00;95.10
11142;DHT22;5625;50.122;19.864;2022-09-14T03:19:35;14.90;94.70
11142;DHT22;5625;50.122;19.864;2022-09-14T03:22:03;15.00;94.70
11142;DHT22;5625;50.122;19.864;2022-09-14T03:24:31;14.90;94.90
11142;DHT22;5625;50.122;19.864;2022-09-14T03:27:00;14.90;94.80
11142;DHT22;5625;50.122;19.864;2022-09-14T03:29:28;14.90;95.10
11142;DHT22;5625;50.122;19.864;2022-09-14T03:31:56;14.80;95.70
11142;DHT22;5625;50.122;19.864;2022-09-14T03:34:24;14.80;95.60
11142;DHT22;5625;50.122;19.864;2022-09-14T03:36:53;14.80;96.20
11142;DHT22;5625;50.122;19.864;2022-09-14T03:39:21;14.80;95.80
11142;DHT22;5625;50.122;19.864;2022-09-14T03:41:49;14.80;96.10
11142;DHT22;5625;50.122;19.864;2022-09-14T03:44:18;14.80;95.80
11142;DHT22;5625;50.122;19.864;2022-09-14T03:46:46;14.80;96.10
11142;DHT22;5625;50.122;19.864;2022-09-14T03:49:14;14.80;96.20
11142;DHT22;5625;50.122;19.864;2022-09-14T03:51:42;14.70;96.20
11142;DHT22;5625;50.122;19.864;2022-09-14T03:54:11;14.70;96.20
11142;DHT22;5625;50.122;19.864;2022-09-14T03:56:39;14.70;96.60
11142;DHT22;5625;50.122;19.864;2022-09-14T03:59:08;14.70;96.50
11142;DHT22;5625;50.122;19.864;2022-09-14T04:01:36;14.70;97.10
11142;DHT22;5625;50.122;19.864;2022-09-14T04:04:05;14.70;96.70
11142;DHT22;5625;50.122;19.864;2022-09-14T04:06:33;14.70;97.00
11142;DHT22;5625;50.122;19.864;2022-09-14T04:09:01;14.70;97.40
11142;DHT22;5625;50.122;19.864;2022-09-14T04:11:31;14.70;96.60
11142;DHT22;5625;50.122;19.864;2022-09-14T04:14:01;14.60;97.50
11142;DHT22;5625;50.122;19.864;2022-09-14T04:16:30;14.60;97.00
11142;DHT22;5625;50.122;19.864;2022-09-14T04:18:58;14.60;96.80
11142;DHT22;5625;50.122;19.864;2022-09-14T04:21:26;14.60;96.50
11142;DHT22;5625;50.122;19.864;2022-09-14T04:23:55;14.60;97.10
11142;DHT22;5625;50.122;19.864;2022-09-14T04:26:43;14.60;97.80
11142;DHT22;5625;50.122;19.864;2022-09-14T04:29:12;14.60;96.80
11142;DHT22;5625;50.122;19.864;2022-09-14T04:31:40;14.60;97.20
11142;DHT22;5625;50.122;19.864;2022-09-14T04:34:10;14.60;96.60
11142;DHT22;5625;50.122;19.864;2022-09-14T04:36:38;14.60;97.30
11142;DHT22;5625;50.122;19.864;2022-09-14T04:39:06;14.60;98.20
11142;DHT22;5625;50.122;19.864;2022-09-14T04:41:34;14.60;97.10
11142;DHT22;5625;50.122;19.864;2022-09-14T04:44:04;14.60;97.70
11142;DHT22;5625;50.122;19.864;2022-09-14T04:46:33;14.70;97.40
11142;DHT22;5625;50.122;19.864;2022-09-14T04:49:02;14.70;97.20
11142;DHT22;5625;50.122;19.864;2022-09-14T04:51:31;14.70;96.50
11142;DHT22;5625;50.122;19.864;2022-09-14T04:54:01;14.70;96.80
11142;DHT22;5625;50.122;19.864;2022-09-14T04:56:31;14.70;97.50
11142;DHT22;5625;50.122;19.864;2022-09-14T04:59:01;14.70;97.30
11142;DHT22;5625;50.122;19.864;2022-09-14T05:01:34;14.70;96.90
11142;DHT22;5625;50.122;19.864;2022-09-14T05:04:03;14.70;97.80
11142;DHT22;5625;50.122;19.864;2022-09-14T05:06:33;14.70;99.60
11142;DHT22;5625;50.122;19.864;2022-09-14T05:09:03;14.80;99.10
11142;DHT22;5625;50.122;19.864;2022-09-14T05:11:33;14.90;99.30
11142;DHT22;5625;50.122;19.864;2022-09-14T05:14:02;14.80;99.80
11142;DHT22;5625;50.122;19.864;2022-09-14T05:16:32;14.90;99.80
11142;DHT22;5625;50.122;19.864;2022-09-14T05:19:02;14.90;99.50
11142;DHT22;5625;50.122;19.864;2022-09-14T05:21:32;14.90;99.30
11142;DHT22;5625;50.122;19.864;2022-09-14T05:24:02;14.90;99.10
11142;DHT22;5625;50.122;19.864;2022-09-14T05:26:31;15.00;99.10
11142;DHT22;5625;50.122;19.864;2022-09-14T05:29:01;15.00;99.00
11142;DHT22;5625;50.122;19.864;2022-09-14T05:31:31;15.10;98.80
11142;DHT22;5625;50.122;19.864;2022-09-14T05:33:59;15.10;99.30
11142;DHT22;5625;50.122;19.864;2022-09-14T05:36:28;15.10;98.60
11142;DHT22;5625;50.122;19.864;2022-09-14T05:38:56;15.10;99.10
11142;DHT22;5625;50.122;19.864;2022-09-14T05:41:24;15.20;99.20
11142;DHT22;5625;50.122;19.864;2022-09-14T05:43:52;15.30;99.10
11142;DHT22;5625;50.122;19.864;2022-09-14T05:46:20;15.30;99.20
11142;DHT22;5625;50.122;19.864;2022-09-14T05:48:50;15.40;98.90
11142;DHT22;5625;50.122;19.864;2022-09-14T05:51:20;15.60;97.50
11142;DHT22;5625;50.122;19.864;2022-09-14T05:53:49;16.00;94.70
11142;DHT22;5625;50.122;19.864;2022-09-14T05:56:19;16.60;87.70
11142;DHT22;5625;50.122;19.864;2022-09-14T05:58:47;17.30;71.40
11142;DHT22;5625;50.122;19.864;2022-09-14T06:01:17;18.10;51.70
11142;DHT22;5625;50.122;19.864;2022-09-14T06:03:46;18.70;32.20
11142;DHT22;5625;50.122;19.864;2022-09-14T06:06:18;19.30;1.00
11142;DHT22;5625;50.122;19.864;2022-09-14T06:08:48;19.50;1.00
11142;DHT22;5625;50.122;19.864;2022-09-14T06:11:20;19.70;1.00
11142;DHT22;5625;50.122;19.864;2022-09-14T06:13:48;20.50;1.00
11142;DHT22;5625;50.122;19.864;2022-09-14T06:16:18;20.60;1.00
11142;DHT22;5625;50.122;19.864;2022-09-14T06:18:47;20.60;1.00
11142;DHT22;5625;50.122;19.864;2022-09-14T06:21:18;20.70;1.00
11142;DHT22;5625;50.122;19.864;2022-09-14T06:23:47;21.10;1.00
11142;DHT22;5625;50.122;19.864;2022-09-14T06:26:16;21.70;1.00
11142;DHT22;5625;50.122;19.864;2022-09-14T06:28:44;22.10;1.00
11142;DHT22;5625;50.122;19.864;2022-09-14T06:31:13;22.60;1.00
11142;DHT22;5625;50.122;19.864;2022-09-14T06:33:44;23.20;99.90
11142;DHT22;5625;50.122;19.864;2022-09-14T06:36:14;23.60;99.90
11142;DHT22;5625;50.122;19.864;2022-09-14T06:38:47;24.00;99.90
11142;DHT22;5625;50.122;19.864;2022-09-14T06:41:17;24.40;99.90
11142;DHT22;5625;50.122;19.864;2022-09-14T06:43:46;24.80;99.90
11142;DHT22;5625;50.122;19.864;2022-09-14T06:46:16;25.10;99.90
11142;DHT22;5625;50.122;19.864;2022-09-14T06:48:46;25.10;99.90
11142;DHT22;5625;50.122;19.864;2022-09-14T06:51:17;24.70;88.30
11142;DHT22;5625;50.122;19.864;2022-09-14T06:53:47;24.30;99.90
11142;DHT22;5625;50.122;19.864;2022-09-14T06:56:16;23.90;99.90
11142;DHT22;5625;50.122;19.864;2022-09-14T06:58:45;23.50;99.90
11142;DHT22;5625;50.122;19.864;2022-09-14T07:01:14;23.40;99.90
11142;DHT22;5625;50.122;19.864;2022-09-14T07:03:43;23.20;99.90
11142;DHT22;5625;50.122;19.864;2022-09-14T07:06:13;23.00;99.90
11142;DHT22;5625;50.122;19.864;2022-09-14T07:08:43;22.90;99.90
11142;DHT22;5625;50.122;19.864;2022-09-14T07:11:13;22.80;99.90
11142;DHT22;5625;50.122;19.864;2022-09-14T07:13:43;22.60;99.90
11142;DHT22;5625;50.122;19.864;2022-09-14T07:16:12;22.50;99.90
11142;DHT22;5625;50.122;19.864;2022-09-14T07:18:40;22.50;99.90
11142;DHT22;5625;50.122;19.864;2022-09-14T07:21:10;22.50;99.90
11142;DHT22;5625;50.122;19.864;2022-09-14T07:23:40;22.50;99.90
11142;DHT22;5625;50.122;19.864;2022-09-14T07:26:12;22.70;99.90
11142;DHT22;5625;50.122;19.864;2022-09-14T07:28:41;22.80;99.90
11142;DHT22;5625;50.122;19.864;2022-09-14T07:31:14;22.80;99.90
11142;DHT22;5625;50.122;19.864;2022-09-14T07:33:44;22.80;99.90
11142;DHT22;5625;50.122;19.864;2022-09-14T07:36:13;23.00;99.90
11142;DHT22;5625;50.122;19.864;2022-09-14T07:38:41;23.30;99.90
11142;DHT22;5625;50.122;19.864;2022-09-14T07:41:27;23.30;99.90
11142;DHT22;5625;50.122;19.864;2022-09-14T07:43:57;23.20;99.90
11142;DHT22;5625;50.122;19.864;2022-09-14T07:46:26;23.10;99.90
11142;DHT22;5625;50.122;19.864;2022-09-14T07:48:56;23.00;99.90
11142;DHT22;5625;50.122;19.864;2022-09-14T07:51:25;22.90;99.90
11142;DHT22;5625;50.122;19.864;2022-09-14T07:53:53;22.70;99.90
11142;DHT22;5625;50.122;19.864;2022-09-14T07:56:21;22.60;99.90
11142;DHT22;5625;50.122;19.864;2022-09-14T07:58:54;22.50;99.90
11142;DHT22;5625;50.122;19.864;2022-09-14T08:01:42;22.40;99.90
11142;DHT22;5625;50.122;19.864;2022-09-14T08:04:11;22.20;99.90
11142;DHT22;5625;50.122;19.864;2022-09-14T08:06:39;22.20;99.90
11142;DHT22;5625;50.122;19.864;2022-09-14T08:09:07;22.00;99.90
11142;DHT22;5625;50.122;19.864;2022-09-14T08:11:38;21.90;99.90
11142;DHT22;5625;50.122;19.864;2022-09-14T08:14:09;21.80;99.90
11142;DHT22;5625;50.122;19.864;2022-09-14T08:16:39;21.80;99.90
11142;DHT22;5625;50.122;19.864;2022-09-14T08:19:11;21.70;99.90
11142;DHT22;5625;50.122;19.864;2022-09-14T08:21:40;21.80;99.90
11142;DHT22;5625;50.122;19.864;2022-09-14T08:24:15;21.80;1.00
11142;DHT22;5625;50.122;19.864;2022-09-14T08:26:43;21.70;1.00
11142;DHT22;5625;50.122;19.864;2022-09-14T08:29:13;21.60;1.00
11142;DHT22;5625;50.122;19.864;2022-09-14T08:31:42;21.60;1.00
11142;DHT22;5625;50.122;19.864;2022-09-14T08:34:12;21.70;1.00
11142;DHT22;5625;50.122;19.864;2022-09-14T08:38:05;21.70;1.00
11142;DHT22;5625;50.122;19.864;2022-09-14T08:40:33;21.70;1.00
11142;DHT22;5625;50.122;19.864;2022-09-14T08:43:02;21.80;1.00
11142;DHT22;5625;50.122;19.864;2022-09-14T08:45:30;21.80;1.00
11142;DHT22;5625;50.122;19.864;2022-09-14T08:47:59;21.90;1.00
11142;DHT22;5625;50.122;19.864;2022-09-14T08:50:27;21.90;1.00
11142;DHT22;5625;50.122;19.864;2022-09-14T08:53:00;22.00;1.00
11142;DHT22;5625;50.122;19.864;2022-09-14T08:55:34;22.10;1.00
11142;DHT22;5625;50.122;19.864;2022-09-14T08:58:12;22.40;1.00
11142;DHT22;5625;50.122;19.864;2022-09-14T09:00:44;22.60;1.00
11142;DHT22;5625;50.122;19.864;2022-09-14T09:03:40;22.60;1.00
11142;DHT22;5625;50.122;19.864;2022-09-14T09:06:15;22.80;99.90
11142;DHT22;5625;50.122;19.864;2022-09-14T09:08:52;22.80;99.90
11142;DHT22;5625;50.122;19.864;2022-09-14T09:11:27;22.80;99.90
11142;DHT22;5625;50.122;19.864;2022-09-14T09:14:02;22.90;99.90
11142;DHT22;5625;50.122;19.864;2022-09-14T09:16:36;23.20;99.90
11142;DHT22;5625;50.122;19.864;2022-09-14T09:19:09;23.50;99.90
11142;DHT22;5625;50.122;19.864;2022-09-14T09:21:44;23.90;99.90
11142;DHT22;5625;50.122;19.864;2022-09-14T09:24:19;24.30;99.90
11142;DHT22;5625;50.122;19.864;2022-09-14T09:26:50;24.50;99.90
11142;DHT22;5625;50.122;19.864;2022-09-14T09:29:19;24.50;99.90
11142;DHT22;5625;50.122;19.864;2022-09-14T09:31:49;24.60;99.90
11142;DHT22;5625;50.122;19.864;2022-09-14T09:34:24;24.80;99.90
11142;DHT22;5625;50.122;19.864;2022-09-14T09:36:53;25.10;99.90
11142;DHT22;5625;50.122;19.864;2022-09-14T09:39:23;25.40;99.90
11142;DHT22;5625;50.122;19.864;2022-09-14T09:41:56;25.70;99.90
11142;DHT22;5625;50.122;19.864;2022-09-14T09:44:25;25.90;72.10
11142;DHT22;5625;50.122;19.864;2022-09-14T09:46:55;26.10;59.00
11142;DHT22;5625;50.122;19.864;2022-09-14T09:49:28;26.50;19.60
11142;DHT22;5625;50.122;19.864;2022-09-14T09:52:05;26.80;1.00
11142;DHT22;5625;50.122;19.864;2022-09-14T09:54:35;27.20;1.00
11142;DHT22;5625;50.122;19.864;2022-09-14T09:57:18;27.10;1.00
11142;DHT22;5625;50.122;19.864;2022-09-14T09:59:47;26.80;1.00
11142;DHT22;5625;50.122;19.864;2022-09-14T10:02:21;26.60;1.00
11142;DHT22;5625;50.122;19.864;2022-09-14T10:04:59;26.40;1.00
11142;DHT22;5625;50.122;19.864;2022-09-14T10:07:28;26.20;1.00
11142;DHT22;5625;50.122;19.864;2022-09-14T10:09:59;26.00;1.00
11142;DHT22;5625;50.122;19.864;2022-09-14T10:12:29;25.90;1.00
11142;DHT22;5625;50.122;19.864;2022-09-14T10:15:14;25.80;1.00
11142;DHT22;5625;50.122;19.864;2022-09-14T10:20:37;25.70;1.00
11142;DHT22;5625;50.122;19.864;2022-09-14T10:23:22;25.70;1.00
11142;DHT22;5625;50.122;19.864;2022-09-14T10:25:52;25.70;1.00
11142;DHT22;5625;50.122;19.864;2022-09-14T10:28:38;25.80;1.00
11142;DHT22;5625;50.122;19.864;2022-09-14T10:31:18;26.00;1.00
11142;DHT22;5625;50.122;19.864;2022-09-14T10:33:50;26.20;1.00
11142;DHT22;5625;50.122;19.864;2022-09-14T10:36:22;26.20;1.00
11142;DHT22;5625;50.122;19.864;2022-09-14T10:38:52;26.10;1.00
11142;DHT22;5625;50.122;19.864;2022-09-14T10:41:27;25.90;1.00
11142;DHT22;5625;50.122;19.864;2022-09-14T10:44:30;25.80;1.00
11142;DHT22;5625;50.122;19.864;2022-09-14T10:47:17;25.90;1.00
11142;DHT22;5625;50.122;19.864;2022-09-14T10:50:00;25.90;1.00
11142;DHT22;5625;50.122;19.864;2022-09-14T10:52:35;25.70;1.00
11142;DHT22;5625;50.122;19.864;2022-09-14T10:55:34;25.50;1.00
11142;DHT22;5625;50.122;19.864;2022-09-14T10:58:25;25.40;1.00
11142;DHT22;5625;50.122;19.864;2022-09-14T11:01:16;25.30;1.00
11142;DHT22;5625;50.122;19.864;2022-09-14T11:03:57;25.20;1.00
11142;DHT22;5625;50.122;19.864;2022-09-14T11:06:38;25.10;1.00
11142;DHT22;5625;50.122;19.864;2022-09-14T11:09:15;25.00;1.00
11142;DHT22;5625;50.122;19.864;2022-09-14T11:11:52;24.80;1.00
11142;DHT22;5625;50.122;19.864;2022-09-14T11:14:35;24.80;1.00
11142;DHT22;5625;50.122;19.864;2022-09-14T11:17:33;24.70;1.00
11142;DHT22;5625;50.122;19.864;2022-09-14T11:20:22;24.60;1.00
11142;DHT22;5625;50.122;19.864;2022-09-14T11:22:59;24.50;1.00
11142;DHT22;5625;50.122;19.864;2022-09-14T11:25:38;24.40;7.50
11142;DHT22;5625;50.122;19.864;2022-09-14T11:28:11;24.40;56.20
11142;DHT22;5625;50.122;19.864;2022-09-14T11:30:45;24.40;62.40
11142;DHT22;5625;50.122;19.864;2022-09-14T11:33:21;24.40;84.10
11142;DHT22;5625;50.122;19.864;2022-09-14T11:36:00;24.20;99.90
11142;DHT22;5625;50.122;19.864;2022-09-14T11:38:34;24.10;99.90
11142;DHT22;5625;50.122;19.864;2022-09-14T11:41:09;24.10;99.90
11142;DHT22;5625;50.122;19.864;2022-09-14T11:43:42;24.00;99.90
11142;DHT22;5625;50.122;19.864;2022-09-14T11:46:16;23.90;99.90
11142;DHT22;5625;50.122;19.864;2022-09-14T11:48:52;23.80;99.90
11142;DHT22;5625;50.122;19.864;2022-09-14T11:51:25;23.80;99.90
11142;DHT22;5625;50.122;19.864;2022-09-14T11:53:55;23.70;99.90
11142;DHT22;5625;50.122;19.864;2022-09-14T11:56:24;23.70;99.90
11142;DHT22;5625;50.122;19.864;2022-09-14T11:58:58;23.60;99.90
11142;DHT22;5625;50.122;19.864;2022-09-14T12:01:32;23.60;99.90
11142;DHT22;5625;50.122;19.864;2022-09-14T12:04:16;23.50;99.90
11142;DHT22;5625;50.122;19.864;2022-09-14T12:06:47;23.40;99.90
11142;DHT22;5625;50.122;19.864;2022-09-14T12:09:42;23.40;99.90
11142;DHT22;5625;50.122;19.864;2022-09-14T12:12:32;23.40;99.90
11142;DHT22;5625;50.122;19.864;2022-09-14T12:15:03;23.30;99.90
11142;DHT22;5625;50.122;19.864;2022-09-14T12:17:32;23.30;99.90
11142;DHT22;5625;50.122;19.864;2022-09-14T12:20:41;23.30;99.90
11142;DHT22;5625;50.122;19.864;2022-09-14T12:23:43;23.20;99.90
11142;DHT22;5625;50.122;19.864;2022-09-14T12:26:36;23.10;99.90
11142;DHT22;5625;50.122;19.864;2022-09-14T12:29:24;23.10;99.90
11142;DHT22;5625;50.122;19.864;2022-09-14T12:32:24;22.90;99.90
11142;DHT22;5625;50.122;19.864;2022-09-14T12:37:59;22.70;1.00
11142;DHT22;5625;50.122;19.864;2022-09-14T12:40:47;22.60;1.00
11142;DHT22;5625;50.122;19.864;2022-09-14T12:46:37;22.50;1.00
11142;DHT22;5625;50.122;19.864;2022-09-14T12:49:28;22.40;1.00
11142;DHT22;5625;50.122;19.864;2022-09-14T12:52:03;22.30;1.00
11142;DHT22;5625;50.122;19.864;2022-09-14T12:54:42;22.30;1.00
11142;DHT22;5625;50.122;19.864;2022-09-14T12:57:27;22.20;1.00
11142;DHT22;5625;50.122;19.864;2022-09-14T13:00:04;22.10;1.00
11142;DHT22;5625;50.122;19.864;2022-09-14T13:03:11;22.10;1.00
11142;DHT22;5625;50.122;19.864;2022-09-14T13:05:43;21.90;13.60
11142;DHT22;5625;50.122;19.864;2022-09-14T13:08:14;21.90;17.30
11142;DHT22;5625;50.122;19.864;2022-09-14T13:10:47;21.80;17.20
11142;DHT22;5625;50.122;19.864;2022-09-14T13:13:17;21.80;22.30
11142;DHT22;5625;50.122;19.864;2022-09-14T13:15:51;21.70;29.80
11142;DHT22;5625;50.122;19.864;2022-09-14T13:18:29;21.70;36.10
11142;DHT22;5625;50.122;19.864;2022-09-14T13:20:59;21.60;41.40
11142;DHT22;5625;50.122;19.864;2022-09-14T13:23:29;21.60;46.60
11142;DHT22;5625;50.122;19.864;2022-09-14T13:26:11;21.50;51.60
11142;DHT22;5625;50.122;19.864;2022-09-14T13:28:42;21.50;53.70
11142;DHT22;5625;50.122;19.864;2022-09-14T13:31:12;21.50;58.90
11142;DHT22;5625;50.122;19.864;2022-09-14T13:33:46;21.40;59.20
11142;DHT22;5625;50.122;19.864;2022-09-14T13:36:17;21.30;68.30
11142;DHT22;5625;50.122;19.864;2022-09-14T13:38:47;21.30;73.50
11142;DHT22;5625;50.122;19.864;2022-09-14T13:41:18;21.30;74.30
11142;DHT22;5625;50.122;19.864;2022-09-14T13:43:50;21.30;75.20
11142;DHT22;5625;50.122;19.864;2022-09-14T13:46:20;21.20;77.60
11142;DHT22;5625;50.122;19.864;2022-09-14T13:48:49;21.20;78.40
11142;DHT22;5625;50.122;19.864;2022-09-14T13:51:22;21.10;81.00
11142;DHT22;5625;50.122;19.864;2022-09-14T13:53:52;21.10;80.40
11142;DHT22;5625;50.122;19.864;2022-09-14T13:56:25;21.10;83.40
11142;DHT22;5625;50.122;19.864;2022-09-14T13:59:22;21.00;91.40
11142;DHT22;5625;50.122;19.864;2022-09-14T14:01:54;20.90;90.70
11142;DHT22;5625;50.122;19.864;2022-09-14T14:04:27;20.80;90.80
11142;DHT22;5625;50.122;19.864;2022-09-14T14:07:13;20.80;91.00
11142;DHT22;5625;50.122;19.864;2022-09-14T14:09:44;20.70;89.90
11142;DHT22;5625;50.122;19.864;2022-09-14T14:12:23;20.60;90.30
11142;DHT22;5625;50.122;19.864;2022-09-14T14:14:55;20.70;90.60
11142;DHT22;5625;50.122;19.864;2022-09-14T14:17:33;20.60;91.40
11142;DHT22;5625;50.122;19.864;2022-09-14T14:20:26;20.60;91.70
11142;DHT22;5625;50.122;19.864;2022-09-14T14:22:56;20.60;90.00
11142;DHT22;5625;50.122;19.864;2022-09-14T14:25:29;20.60;90.30
11142;DHT22;5625;50.122;19.864;2022-09-14T14:28:02;20.50;91.00
11142;DHT22;5625;50.122;19.864;2022-09-14T14:30:34;20.50;90.10
11142;DHT22;5625;50.122;19.864;2022-09-14T14:33:03;20.50;90.60
11142;DHT22;5625;50.122;19.864;2022-09-14T14:35:32;20.40;90.30
11142;DHT22;5625;50.122;19.864;2022-09-14T14:38:00;20.40;90.60
11142;DHT22;5625;50.122;19.864;2022-09-14T14:40:30;20.40;90.90
11142;DHT22;5625;50.122;19.864;2022-09-14T14:43:00;20.30;91.90
11142;DHT22;5625;50.122;19.864;2022-09-14T14:45:30;20.30;93.80
11142;DHT22;5625;50.122;19.864;2022-09-14T14:48:02;20.30;92.20
11142;DHT22;5625;50.122;19.864;2022-09-14T14:50:32;20.30;94.10
11142;DHT22;5625;50.122;19.864;2022-09-14T14:53:02;20.30;95.20
11142;DHT22;5625;50.122;19.864;2022-09-14T14:55:31;20.30;94.00
11142;DHT22;5625;50.122;19.864;2022-09-14T14:58:04;20.30;94.90
11142;DHT22;5625;50.122;19.864;2022-09-14T15:00:35;20.30;94.70
11142;DHT22;5625;50.122;19.864;2022-09-14T15:03:04;20.30;95.70
11142;DHT22;5625;50.122;19.864;2022-09-14T15:05:32;20.30;94.80
11142;DHT22;5625;50.122;19.864;2022-09-14T15:08:00;20.30;95.80
11142;DHT22;5625;50.122;19.864;2022-09-14T15:10:28;20.30;95.60
11142;DHT22;5625;50.122;19.864;2022-09-14T15:12:56;20.20;96.30
11142;DHT22;5625;50.122;19.864;2022-09-14T15:15:26;20.20;95.90
11142;DHT22;5625;50.122;19.864;2022-09-14T15:17:55;20.20;95.50
11142;DHT22;5625;50.122;19.864;2022-09-14T15:20:23;20.20;95.70
11142;DHT22;5625;50.122;19.864;2022-09-14T15:22:51;20.10;95.30
11142;DHT22;5625;50.122;19.864;2022-09-14T15:25:20;20.10;95.70
11142;DHT22;5625;50.122;19.864;2022-09-14T15:27:50;20.10;95.90
11142;DHT22;5625;50.122;19.864;2022-09-14T15:30:18;20.10;96.00
11142;DHT22;5625;50.122;19.864;2022-09-14T15:32:47;20.00;96.00
11142;DHT22;5625;50.122;19.864;2022-09-14T15:35:16;20.00;96.70
11142;DHT22;5625;50.122;19.864;2022-09-14T15:37:46;20.00;96.70
11142;DHT22;5625;50.122;19.864;2022-09-14T15:40:15;19.90;98.30
11142;DHT22;5625;50.122;19.864;2022-09-14T15:42:43;19.90;97.80
11142;DHT22;5625;50.122;19.864;2022-09-14T15:45:11;19.90;97.70
11142;DHT22;5625;50.122;19.864;2022-09-14T15:47:41;19.90;97.70
11142;DHT22;5625;50.122;19.864;2022-09-14T15:50:11;19.80;98.30
11142;DHT22;5625;50.122;19.864;2022-09-14T15:52:39;19.80;98.00
11142;DHT22;5625;50.122;19.864;2022-09-14T15:55:08;19.80;97.90
11142;DHT22;5625;50.122;19.864;2022-09-14T15:57:38;19.80;97.30
11142;DHT22;5625;50.122;19.864;2022-09-14T16:00:09;19.80;97.30
11142;DHT22;5625;50.122;19.864;2022-09-14T16:02:41;19.70;97.10
11142;DHT22;5625;50.122;19.864;2022-09-14T16:05:13;19.70;96.40
11142;DHT22;5625;50.122;19.864;2022-09-14T16:07:44;19.70;96.10
11142;DHT22;5625;50.122;19.864;2022-09-14T16:10:12;19.60;96.20
11142;DHT22;5625;50.122;19.864;2022-09-14T16:12:44;19.60;96.30
11142;DHT22;5625;50.122;19.864;2022-09-14T16:15:15;19.60;96.20
11142;DHT22;5625;50.122;19.864;2022-09-14T16:17:52;19.50;96.20